Aeroporto :
LOGIN :

Iscrizione | Disclaimer

   EN    FR    IT 

 










Sommario :    VFR   VFR Marginale   IFR   IFR Intensivo   IFR Molto Intensivo
Visibilità : 
Base nubi : 
>= 8 km
>= 3000ft
5 / 8 km
1000 / 3000 ft
1500m / 5 km
500 / 1000 ft
800 / 1500m
200 / 500 ft
< 800m
< 200 ft
Simboli :   Temporali  Nebbia  Neve Forte  Precipitazioni Forti  Vento > 20 kt
SIGMETs :   Varie  Temporali  Ghiacco  Turbolenza  Onda orograficha  Ceneri Vulcaniche






- Altitudine del aeroporto : 1367 ft
- Codice IATA : FDH


EDNY - Friedrichshafen

ULTIMO METAR :
  • 301050Z 23014KT 9999 SCT021 BKN031 01/M04 Q1025

METARs OBSOLETI :
  • 301020Z 24013KT 9999 BKN021 BKN031 01/M04 Q1025
  • 300950Z 24014KT 9999 SCT021 SCT036 00/M04 Q1025
  • 300920Z 24016KT 9999 BKN017 M00/M04 Q1025
  • 300850Z 23014KT 9999 BKN018 M00/M04 Q1025
  • 300820Z 25013KT 9999 SCT018 M01/M04 Q1025

TAF TAF EDNY
Valido dal 30 a 06 ore il 31 a 06 ore UTC


300500Z 3006/3106 24007KT 9999 FEW050
BECMG 3009/3011 24012KT
PROB30
TEMPO 3011/3016 24015G25KT
BECMG 3019/3020 22005KT



MetMap, La meteo Aeronautica in un colpo d'occhio ! - Copyright ORBIFLY Dicembre 2007 - Disclaimer

ORBIFLY MET'MAP TEAM :

Programmazione e sviluppo : Alexandra Zaïnal
Concezione : Baudouin d'Aumeries
Supporto tecnico e logistico : Manuel Goepfert
Aiuto : Marc-Olivier Méhu
Aiuto per la traduzione : Arnaldo La Scala




FONTI E CREDITI :

   NOAA